Time;durP1;ratioP1;P1;durP2;ratioP2;P2;SDS_P1;SDS_P2;PMS_P1;PMS_P2;Temp;Humidity;BMP_temperature;BMP_pressure;BME280_temperature;BME280_humidity;BME280_pressure;Samples;Min_cycle;Max_cycle;Signal;HPM_P1;HPM_P2
2023/12/08 00:01:33;;;;;;;43.50;25.67;;;3.30;99.90;;;;;;5012105;28;20210;-54
2023/12/08 00:03:58;;;;;;;41.83;24.97;;;3.30;99.90;;;;;;5016349;28;20229;-54
2023/12/08 00:06:24;;;;;;;41.37;25.20;;;3.30;99.90;;;;;;5014247;28;20197;-54
2023/12/08 00:08:49;;;;;;;38.33;23.53;;;3.30;99.90;;;;;;5014313;28;20213;-54
2023/12/08 00:11:15;;;;;;;48.17;24.07;;;3.10;99.90;;;;;;5014179;28;20727;-54
2023/12/08 00:13:41;;;;;;;38.63;22.67;;;3.10;99.90;;;;;;5014451;28;20207;-54
2023/12/08 00:16:08;;;;;;;37.00;22.80;;;3.10;99.90;;;;;;5014417;28;20210;-54
2023/12/08 00:18:34;;;;;;;41.43;24.67;;;3.10;99.90;;;;;;5012531;28;20783;-54
2023/12/08 00:20:59;;;;;;;36.80;22.40;;;3.20;99.90;;;;;;5014370;28;20202;-54
2023/12/08 00:23:25;;;;;;;40.73;23.70;;;3.20;99.90;;;;;;5012280;28;20300;-54
2023/12/08 00:25:50;;;;;;;37.30;22.97;;;3.20;99.90;;;;;;5009131;28;20697;-55
2023/12/08 00:28:16;;;;;;;39.70;22.70;;;3.00;99.90;;;;;;5011414;28;20195;-54
2023/12/08 00:30:42;;;;;;;39.70;24.47;;;2.90;99.90;;;;;;5013634;28;20735;-55
2023/12/08 00:33:07;;;;;;;37.80;22.97;;;2.80;99.90;;;;;;5008177;28;20199;-54
2023/12/08 00:35:33;;;;;;;37.73;24.63;;;3.00;99.90;;;;;;5016469;28;20218;-54
2023/12/08 00:37:58;;;;;;;40.70;25.53;;;3.00;99.90;;;;;;5025293;28;20219;-55
2023/12/08 00:40:23;;;;;;;38.80;24.33;;;3.10;99.90;;;;;;5029726;28;20939;-54
2023/12/08 00:42:49;;;;;;;40.33;24.83;;;2.90;99.90;;;;;;5024325;28;20225;-54
2023/12/08 00:45:15;;;;;;;37.17;23.20;;;2.90;99.90;;;;;;5029125;28;20261;-59
2023/12/08 00:47:41;;;;;;;36.23;22.80;;;3.00;99.90;;;;;;5026056;28;20422;-59
2023/12/08 00:50:07;;;;;;;41.20;23.83;;;3.00;99.90;;;;;;5018227;28;20241;-57
2023/12/08 00:52:33;;;;;;;35.80;23.47;;;3.00;99.90;;;;;;5034089;28;20198;-55
2023/12/08 00:54:59;;;;;;;40.77;24.30;;;3.20;99.90;;;;;;5033601;28;20203;-54
2023/12/08 00:57:24;;;;;;;38.30;23.87;;;3.10;99.90;;;;;;5034027;28;20190;-54
2023/12/08 00:59:50;;;;;;;40.87;24.27;;;3.10;99.90;;;;;;5032132;28;20281;-53
2023/12/08 01:02:15;;;;;;;37.00;23.33;;;3.10;99.90;;;;;;5012191;28;20209;-53
2023/12/08 01:04:41;;;;;;;41.73;24.50;;;3.00;99.90;;;;;;5031736;28;20229;-54
2023/12/08 01:07:07;;;;;;;43.10;25.77;;;3.10;99.90;;;;;;5026891;28;20207;-63
2023/12/08 01:09:33;;;;;;;41.50;23.13;;;3.20;99.90;;;;;;5018709;28;20260;-64
2023/12/08 01:11:58;;;;;;;45.87;27.57;;;3.20;99.90;;;;;;5019145;28;20513;-54
2023/12/08 01:14:24;;;;;;;40.20;24.47;;;3.00;99.90;;;;;;5014885;28;20264;-64
2023/12/08 01:16:50;;;;;;;44.20;26.07;;;3.10;99.90;;;;;;5014212;28;20679;-54
2023/12/08 01:19:16;;;;;;;44.93;25.53;;;3.10;99.90;;;;;;5014831;28;20202;-54
2023/12/08 01:21:41;;;;;;;43.40;26.57;;;2.90;99.90;;;;;;5034551;28;20209;-56
2023/12/08 01:24:10;;;;;;;50.70;29.10;;;3.00;99.90;;;;;;5031712;28;20617;-55
2023/12/08 01:26:36;;;;;;;44.97;26.67;;;3.00;99.90;;;;;;5018525;28;20229;-67
2023/12/08 01:29:02;;;;;;;42.83;26.57;;;2.90;99.90;;;;;;5030755;28;21079;-67
2023/12/08 01:31:27;;;;;;;43.07;27.13;;;2.80;99.90;;;;;;5014899;28;20191;-66
2023/12/08 01:33:53;;;;;;;44.57;26.20;;;2.80;99.90;;;;;;5012566;28;20195;-66
2023/12/08 01:36:18;;;;;;;51.10;24.90;;;3.00;99.90;;;;;;5022383;28;20279;-64
2023/12/08 01:38:45;;;;;;;43.07;25.93;;;3.10;99.90;;;;;;5015360;28;20194;-53
2023/12/08 01:41:16;;;;;;;42.00;26.17;;;3.00;99.90;;;;;;5014220;28;20258;-53
2023/12/08 01:43:46;;;;;;;39.60;25.13;;;3.00;99.90;;;;;;5010832;28;20206;-55
2023/12/08 01:46:15;;;;;;;41.70;24.37;;;3.10;99.90;;;;;;5000807;28;20230;-55
2023/12/08 01:48:45;;;;;;;44.67;26.73;;;3.00;99.90;;;;;;5007183;28;20471;-55
2023/12/08 01:51:12;;;;;;;37.37;23.43;;;3.00;99.90;;;;;;5012900;28;20206;-55
2023/12/08 01:53:38;;;;;;;46.63;26.03;;;3.00;99.90;;;;;;5009210;28;20929;-54
2023/12/08 01:56:06;;;;;;;34.40;21.37;;;2.90;99.90;;;;;;5006114;28;20188;-55
2023/12/08 01:58:31;;;;;;;40.77;23.53;;;2.90;99.90;;;;;;5008985;28;20198;-56
2023/12/08 02:00:58;;;;;;;39.90;23.93;;;2.80;99.90;;;;;;5012763;28;20225;-54
2023/12/08 02:03:24;;;;;;;37.17;22.97;;;2.80;99.90;;;;;;5012189;28;20199;-54
2023/12/08 02:05:50;;;;;;;41.33;22.93;;;2.90;99.90;;;;;;5011419;28;20412;-55
2023/12/08 02:08:16;;;;;;;40.53;24.17;;;2.80;99.90;;;;;;5014057;28;20671;-54
2023/12/08 02:10:42;;;;;;;40.73;23.50;;;2.80;99.90;;;;;;5012489;28;20210;-54
2023/12/08 02:13:08;;;;;;;43.37;24.53;;;2.90;99.90;;;;;;5012237;28;20195;-54
2023/12/08 02:15:34;;;;;;;46.03;24.03;;;3.00;99.90;;;;;;5011387;28;20206;-54
2023/12/08 02:18:00;;;;;;;45.57;25.67;;;3.00;99.90;;;;;;5009455;28;20245;-54
2023/12/08 02:20:26;;;;;;;41.00;23.80;;;3.00;99.90;;;;;;5005970;28;20769;-54
2023/12/08 02:22:51;;;;;;;49.63;26.03;;;2.90;99.90;;;;;;5011199;28;20202;-54
2023/12/08 02:25:17;;;;;;;38.83;22.67;;;2.90;99.90;;;;;;5004714;28;20789;-55
2023/12/08 02:27:43;;;;;;;45.70;25.77;;;2.80;99.90;;;;;;5010378;28;20252;-54
2023/12/08 02:30:09;;;;;;;41.87;24.70;;;2.80;99.90;;;;;;5011179;28;20665;-54
2023/12/08 02:33:07;;;;;;;55.87;26.60;;;2.60;99.90;;;;;;5007152;28;20682;-55
2023/12/08 02:35:37;;;;;;;42.80;25.17;;;2.60;99.90;;;;;;5013708;28;20229;-54
2023/12/08 02:38:05;;;;;;;43.27;23.30;;;2.70;99.90;;;;;;5026211;28;20202;-54
2023/12/08 02:40:31;;;;;;;47.60;25.43;;;2.70;99.90;;;;;;5032107;28;20210;-54
2023/12/08 02:42:57;;;;;;;48.97;25.07;;;2.80;99.90;;;;;;5032987;28;20205;-54
2023/12/08 02:45:23;;;;;;;43.37;24.03;;;2.80;99.90;;;;;;5029175;28;20224;-54
2023/12/08 02:47:48;;;;;;;45.53;25.27;;;2.90;99.90;;;;;;5031869;28;20205;-54
2023/12/08 02:50:14;;;;;;;48.27;26.30;;;2.90;99.90;;;;;;5026603;28;20206;-54
2023/12/08 02:52:39;;;;;;;38.30;22.93;;;2.80;99.90;;;;;;5031033;28;20209;-55
2023/12/08 02:55:05;;;;;;;48.53;25.70;;;2.80;99.90;;;;;;5025506;28;20212;-55
2023/12/08 02:57:30;;;;;;;44.83;25.23;;;2.70;99.90;;;;;;5029125;28;20228;-55
2023/12/08 02:59:56;;;;;;;50.37;26.90;;;2.50;99.90;;;;;;5027677;28;20196;-54
2023/12/08 03:02:21;;;;;;;45.63;23.67;;;2.60;99.90;;;;;;5028339;28;20287;-54
2023/12/08 03:04:47;;;;;;;50.87;26.63;;;2.70;99.90;;;;;;5012809;28;20717;-54
2023/12/08 03:07:12;;;;;;;44.07;24.17;;;2.80;99.90;;;;;;5027347;28;20249;-54
2023/12/08 03:09:38;;;;;;;44.83;25.53;;;2.90;99.90;;;;;;5032899;28;20220;-54
2023/12/08 03:12:04;;;;;;;40.53;24.67;;;3.00;99.90;;;;;;5031451;28;21054;-54
2023/12/08 03:14:30;;;;;;;49.77;25.53;;;3.00;99.90;;;;;;5027240;28;20768;-54
2023/12/08 03:16:55;;;;;;;44.83;25.37;;;2.90;99.90;;;;;;5031006;28;20291;-53
2023/12/08 03:19:21;;;;;;;44.93;23.43;;;2.90;99.90;;;;;;5030744;28;20676;-54
2023/12/08 03:21:47;;;;;;;45.70;25.63;;;2.80;99.90;;;;;;5031212;28;20193;-53
2023/12/08 03:24:12;;;;;;;44.03;23.90;;;2.80;99.90;;;;;;5032832;28;20223;-54
2023/12/08 03:26:38;;;;;;;37.47;23.63;;;2.70;99.90;;;;;;5030979;28;20203;-54
2023/12/08 03:29:03;;;;;;;47.83;25.10;;;2.70;99.90;;;;;;5031149;28;20197;-54
2023/12/08 03:31:32;;;;;;;45.20;23.20;;;2.60;99.90;;;;;;5033467;28;20746;-54
2023/12/08 03:33:58;;;;;;;38.77;24.80;;;2.80;99.90;;;;;;5033223;28;20192;-54
2023/12/08 03:36:23;;;;;;;43.93;24.53;;;2.80;99.90;;;;;;5029112;28;20934;-54
2023/12/08 03:38:49;;;;;;;46.20;26.27;;;2.80;99.90;;;;;;5032345;28;20269;-54
2023/12/08 03:41:14;;;;;;;46.30;26.17;;;2.90;99.90;;;;;;5033215;28;20236;-54
2023/12/08 03:43:40;;;;;;;46.17;25.93;;;3.10;99.90;;;;;;5034449;28;20200;-54
2023/12/08 03:46:07;;;;;;;51.53;26.93;;;3.10;99.90;;;;;;5030943;28;20209;-55
2023/12/08 03:48:34;;;;;;;41.40;24.00;;;3.10;99.90;;;;;;5035369;28;20553;-55
2023/12/08 03:50:59;;;;;;;50.53;25.80;;;2.80;99.90;;;;;;5034795;28;20759;-52
2023/12/08 03:53:25;;;;;;;44.70;25.53;;;2.90;99.90;;;;;;5035277;28;20316;-53
2023/12/08 03:55:50;;;;;;;46.10;24.83;;;3.00;99.90;;;;;;5035268;28;20201;-53
2023/12/08 03:58:15;;;;;;;43.00;25.17;;;2.90;99.90;;;;;;5018871;28;20309;-54
2023/12/08 04:00:41;;;;;;;48.63;27.40;;;3.00;99.90;;;;;;5035052;28;20683;-55
2023/12/08 04:03:07;;;;;;;48.40;25.60;;;3.10;99.90;;;;;;5032597;28;20191;-55
2023/12/08 04:05:32;;;;;;;43.87;24.83;;;3.10;99.90;;;;;;5028626;28;20528;-55
2023/12/08 04:07:58;;;;;;;48.47;24.80;;;3.10;99.90;;;;;;5030381;28;20359;-64
2023/12/08 04:10:23;;;;;;;42.07;25.37;;;2.90;99.90;;;;;;5034283;28;20735;-55
2023/12/08 04:12:49;;;;;;;43.00;26.43;;;2.90;99.90;;;;;;5034686;28;20725;-55
2023/12/08 04:15:14;;;;;;;51.00;29.43;;;2.90;99.90;;;;;;5034299;28;20205;-54
2023/12/08 04:17:40;;;;;;;45.70;26.97;;;3.10;99.90;;;;;;5031234;28;20243;-53
2023/12/08 04:20:06;;;;;;;43.00;24.87;;;3.10;99.90;;;;;;5030895;28;20228;-54
2023/12/08 04:22:32;;;;;;;42.30;24.67;;;3.00;99.90;;;;;;5034750;28;20571;-55
2023/12/08 04:24:57;;;;;;;42.93;25.93;;;2.80;99.90;;;;;;5036256;28;20221;-55
2023/12/08 04:27:23;;;;;;;46.20;26.63;;;2.90;99.90;;;;;;5032440;28;20278;-55
2023/12/08 04:29:48;;;;;;;39.60;24.57;;;2.90;99.90;;;;;;5030730;28;20214;-55
2023/12/08 04:32:14;;;;;;;41.17;23.43;;;2.90;99.90;;;;;;5030073;28;20280;-59
2023/12/08 04:34:39;;;;;;;44.67;25.10;;;2.90;99.90;;;;;;5030210;28;20207;-55
2023/12/08 04:37:05;;;;;;;42.40;25.87;;;2.90;99.90;;;;;;5018829;28;20257;-55
2023/12/08 04:39:30;;;;;;;39.50;24.53;;;2.90;99.90;;;;;;5014689;28;20206;-57
2023/12/08 04:41:56;;;;;;;42.30;24.63;;;3.00;99.90;;;;;;5014194;28;20623;-55
2023/12/08 04:44:21;;;;;;;37.03;23.17;;;2.80;99.90;;;;;;5011475;28;20229;-55
2023/12/08 04:46:47;;;;;;;42.53;24.00;;;2.90;99.90;;;;;;5014284;28;20255;-55
2023/12/08 04:49:12;;;;;;;37.40;23.17;;;2.90;99.90;;;;;;5014068;28;20210;-55
2023/12/08 04:51:41;;;;;;;41.07;24.53;;;2.90;99.90;;;;;;5012618;28;20219;-55
2023/12/08 04:54:06;;;;;;;37.77;22.80;;;2.90;99.90;;;;;;5006245;28;20203;-54
2023/12/08 04:56:32;;;;;;;43.37;24.80;;;3.10;99.90;;;;;;5011654;28;20254;-54
2023/12/08 04:58:57;;;;;;;38.90;22.57;;;3.10;99.90;;;;;;5009218;28;20349;-55
2023/12/08 05:01:23;;;;;;;38.23;24.57;;;3.00;99.90;;;;;;5009722;28;20211;-54
2023/12/08 05:03:48;;;;;;;42.50;25.40;;;3.00;99.90;;;;;;5009652;28;20204;-54
2023/12/08 05:06:15;;;;;;;39.23;24.37;;;3.10;99.90;;;;;;5013294;28;20210;-54
2023/12/08 05:08:40;;;;;;;40.80;24.23;;;2.70;99.90;;;;;;5013762;28;20453;-54
2023/12/08 05:11:07;;;;;;;42.67;24.90;;;2.80;99.90;;;;;;5015240;28;20713;-54
2023/12/08 05:13:33;;;;;;;42.73;25.63;;;2.80;99.90;;;;;;5010155;28;20207;-54
2023/12/08 05:15:58;;;;;;;38.10;25.10;;;2.90;99.90;;;;;;5027170;28;20637;-54
2023/12/08 05:18:24;;;;;;;39.87;23.23;;;3.10;99.90;;;;;;5011241;28;20708;-54
2023/12/08 05:20:49;;;;;;;39.00;24.90;;;3.20;99.90;;;;;;5009423;28;20203;-54
2023/12/08 05:23:15;;;;;;;38.07;23.40;;;3.10;99.90;;;;;;5009478;28;20662;-54
2023/12/08 05:25:40;;;;;;;37.47;24.27;;;3.00;99.90;;;;;;5012895;28;20705;-54
2023/12/08 05:28:06;;;;;;;38.70;23.03;;;3.00;99.90;;;;;;5014855;28;20200;-54
2023/12/08 05:30:31;;;;;;;36.90;23.37;;;2.90;99.90;;;;;;5011051;28;20210;-54
2023/12/08 05:32:57;;;;;;;37.93;23.03;;;2.80;99.90;;;;;;5013090;28;20199;-53
2023/12/08 05:35:23;;;;;;;40.03;22.70;;;2.90;99.90;;;;;;5015248;28;20223;-55
2023/12/08 05:37:49;;;;;;;42.03;24.63;;;3.00;99.90;;;;;;5016897;28;20592;-55
2023/12/08 05:40:15;;;;;;;40.27;24.77;;;3.10;99.90;;;;;;5034129;28;20204;-54
2023/12/08 05:42:40;;;;;;;42.10;24.03;;;2.80;99.90;;;;;;5033254;28;20266;-54
2023/12/08 05:45:06;;;;;;;36.03;23.37;;;3.00;99.90;;;;;;5029132;28;20728;-53
2023/12/08 05:47:31;;;;;;;40.37;25.33;;;3.10;99.90;;;;;;5031241;28;20210;-54
2023/12/08 05:49:57;;;;;;;39.60;23.53;;;3.10;99.90;;;;;;5012852;28;20190;-69
2023/12/08 05:52:23;;;;;;;39.53;23.27;;;3.20;99.90;;;;;;5032794;28;20212;-55
2023/12/08 05:54:48;;;;;;;35.40;23.00;;;2.90;99.90;;;;;;5034394;28;20198;-55
2023/12/08 05:57:13;;;;;;;36.70;23.50;;;2.80;99.90;;;;;;5032794;28;20266;-53
2023/12/08 05:59:39;;;;;;;40.23;23.73;;;2.90;99.90;;;;;;5032484;28;20959;-54
2023/12/08 06:02:04;;;;;;;37.43;23.30;;;2.90;99.90;;;;;;5032823;28;20265;-54
2023/12/08 06:04:30;;;;;;;36.63;23.43;;;2.70;99.90;;;;;;5030608;28;20222;-53
2023/12/08 06:06:56;;;;;;;36.20;22.70;;;2.70;99.90;;;;;;5028006;28;20205;-53
2023/12/08 06:09:21;;;;;;;37.20;23.67;;;2.80;99.90;;;;;;5034080;28;20268;-55
2023/12/08 06:11:47;;;;;;;40.07;23.43;;;2.90;99.90;;;;;;5032186;28;20197;-54
2023/12/08 06:14:12;;;;;;;39.80;22.57;;;2.80;99.90;;;;;;5031544;28;20205;-54
2023/12/08 06:16:38;;;;;;;37.20;23.30;;;2.80;99.90;;;;;;5016691;28;20271;-54
2023/12/08 06:19:04;;;;;;;40.33;24.13;;;2.80;99.90;;;;;;5031512;28;20225;-55
2023/12/08 06:21:30;;;;;;;40.70;23.13;;;2.60;99.90;;;;;;5032015;28;20220;-54
2023/12/08 06:23:56;;;;;;;38.07;23.97;;;2.70;99.90;;;;;;5014138;28;20827;-54
2023/12/08 06:26:21;;;;;;;36.93;21.90;;;2.70;99.90;;;;;;5033758;28;20238;-54
2023/12/08 06:28:47;;;;;;;36.23;21.43;;;2.70;99.90;;;;;;5031120;28;20213;-54
2023/12/08 06:31:12;;;;;;;39.37;21.97;;;2.70;99.90;;;;;;5027255;28;20208;-54
2023/12/08 06:33:38;;;;;;;34.43;22.43;;;2.60;99.90;;;;;;5027520;28;20264;-54
2023/12/08 06:36:05;;;;;;;37.30;23.13;;;2.50;99.90;;;;;;5035502;28;20314;-54
2023/12/08 06:38:30;;;;;;;37.93;22.13;;;2.60;99.90;;;;;;5024348;28;20189;-55
2023/12/08 06:40:56;;;;;;;35.47;24.53;;;2.50;99.90;;;;;;5019596;28;20556;-55
2023/12/08 06:43:21;;;;;;;32.67;19.13;;;2.60;99.90;;;;;;5037238;28;20722;-54
2023/12/08 06:45:47;;;;;;;33.57;23.00;;;2.50;99.90;;;;;;5021644;28;20313;-54
2023/12/08 06:48:13;;;;;;;37.30;22.20;;;2.50;99.90;;;;;;5012367;28;20204;-54
2023/12/08 06:50:38;;;;;;;33.77;21.57;;;2.50;99.90;;;;;;5034476;28;20212;-54
2023/12/08 06:53:04;;;;;;;35.87;21.70;;;2.60;99.90;;;;;;5030257;28;20219;-54
2023/12/08 06:55:29;;;;;;;35.10;22.93;;;2.50;99.90;;;;;;5026194;28;20209;-54
2023/12/08 06:57:55;;;;;;;36.53;21.80;;;2.60;99.90;;;;;;5032121;28;20201;-55
2023/12/08 07:00:20;;;;;;;37.53;23.23;;;2.60;99.90;;;;;;5018618;28;20650;-54
2023/12/08 07:02:46;;;;;;;38.77;21.60;;;2.60;99.90;;;;;;5037530;28;20188;-54
2023/12/08 07:05:12;;;;;;;37.00;22.97;;;2.50;99.90;;;;;;5027426;28;20654;-54
2023/12/08 07:07:37;;;;;;;38.50;22.30;;;2.40;99.90;;;;;;5033280;28;20183;-54
2023/12/08 07:10:03;;;;;;;38.17;22.03;;;2.50;99.90;;;;;;5030145;28;20279;-54
2023/12/08 07:12:29;;;;;;;36.87;23.77;;;2.50;99.90;;;;;;5036979;28;20199;-54
2023/12/08 07:14:54;;;;;;;34.33;22.83;;;2.50;99.90;;;;;;5029793;28;21029;-54
2023/12/08 07:17:20;;;;;;;39.07;23.43;;;2.50;99.90;;;;;;5034996;28;20193;-55
2023/12/08 07:19:45;;;;;;;30.70;19.50;;;2.30;99.90;;;;;;5035228;28;20317;-54
2023/12/08 07:22:11;;;;;;;36.63;23.27;;;2.30;99.90;;;;;;5024907;28;20173;-54
2023/12/08 07:24:40;;;;;;;41.30;25.30;;;2.30;99.90;;;;;;5021971;28;20750;-53
2023/12/08 07:27:06;;;;;;;36.00;24.37;;;2.40;99.90;;;;;;5023825;28;20230;-53
2023/12/08 07:29:31;;;;;;;32.47;21.03;;;2.50;99.90;;;;;;5025439;28;20198;-53
2023/12/08 07:31:57;;;;;;;36.67;23.17;;;2.30;99.90;;;;;;5017843;28;20197;-54
2023/12/08 07:34:22;;;;;;;40.33;24.33;;;2.30;99.90;;;;;;5037146;28;20199;-53
2023/12/08 07:36:48;;;;;;;35.83;24.77;;;2.30;99.90;;;;;;5024667;28;20224;-54
2023/12/08 07:39:13;;;;;;;40.07;23.07;;;2.20;99.90;;;;;;5023918;28;20272;-54
2023/12/08 07:41:39;;;;;;;35.83;23.20;;;2.30;99.90;;;;;;5035131;28;20198;-54
2023/12/08 07:44:04;;;;;;;38.57;25.23;;;2.30;99.90;;;;;;5028769;28;20237;-54
2023/12/08 07:46:30;;;;;;;38.97;22.47;;;2.20;99.90;;;;;;5009562;28;20194;-54
2023/12/08 07:48:56;;;;;;;38.07;22.80;;;2.20;99.90;;;;;;5032535;28;20232;-53
2023/12/08 07:51:21;;;;;;;31.80;23.20;;;2.10;99.90;;;;;;5024307;28;20197;-54
2023/12/08 07:53:47;;;;;;;34.33;22.57;;;2.20;99.90;;;;;;5020752;28;20265;-54
2023/12/08 07:56:13;;;;;;;40.73;22.67;;;2.20;99.90;;;;;;5020867;28;20202;-54
2023/12/08 07:58:39;;;;;;;35.30;23.17;;;2.20;99.90;;;;;;5022244;28;20264;-58
2023/12/08 08:01:05;;;;;;;37.07;22.63;;;2.10;99.90;;;;;;5030182;28;20211;-65
2023/12/08 08:03:30;;;;;;;33.53;22.67;;;2.20;99.90;;;;;;5033289;28;20202;-60
2023/12/08 08:05:56;;;;;;;27.63;18.60;;;2.10;99.90;;;;;;5029445;28;20224;-55
2023/12/08 08:08:21;;;;;;;35.00;23.03;;;2.10;99.90;;;;;;5025444;28;20711;-54
2023/12/08 08:10:47;;;;;;;31.87;20.43;;;2.00;99.90;;;;;;5028530;28;20217;-56
2023/12/08 08:13:13;;;;;;;34.80;21.97;;;2.10;99.90;;;;;;5029837;28;20286;-55
2023/12/08 08:15:39;;;;;;;37.00;23.60;;;2.00;99.90;;;;;;5028457;28;20253;-60
2023/12/08 08:18:05;;;;;;;36.20;22.83;;;2.00;99.90;;;;;;5013065;28;20751;-63
2023/12/08 08:20:30;;;;;;;37.23;22.90;;;2.10;99.90;;;;;;5013023;28;20220;-55
2023/12/08 08:22:56;;;;;;;35.43;20.77;;;2.20;99.90;;;;;;5032383;28;20324;-55
2023/12/08 08:25:21;;;;;;;26.40;17.73;;;2.10;99.90;;;;;;5027469;28;20221;-56
2023/12/08 08:27:48;;;;;;;35.53;20.67;;;2.30;99.90;;;;;;5022483;28;20192;-55
2023/12/08 08:30:14;;;;;;;35.30;23.00;;;2.30;99.90;;;;;;5033818;28;20278;-54
2023/12/08 08:32:40;;;;;;;33.20;20.93;;;2.20;99.90;;;;;;5034021;28;20668;-56
2023/12/08 08:35:06;;;;;;;34.47;22.23;;;2.30;99.90;;;;;;5029885;28;20693;-55
2023/12/08 08:37:31;;;;;;;34.13;20.20;;;2.30;99.90;;;;;;5033246;28;20202;-54
2023/12/08 08:39:57;;;;;;;37.53;22.70;;;2.10;99.90;;;;;;5032025;28;20279;-54
2023/12/08 08:42:23;;;;;;;35.13;22.90;;;2.10;99.90;;;;;;5030414;28;20211;-55
2023/12/08 08:44:49;;;;;;;31.57;21.53;;;2.20;99.90;;;;;;5027386;28;20322;-55
2023/12/08 08:47:14;;;;;;;35.57;23.83;;;2.20;99.90;;;;;;5030002;28;20290;-55
2023/12/08 08:49:40;;;;;;;35.83;21.43;;;2.10;99.90;;;;;;5016183;28;20234;-65
2023/12/08 08:52:06;;;;;;;37.00;21.10;;;2.20;99.90;;;;;;5014704;28;20209;-54
2023/12/08 08:54:31;;;;;;;34.23;21.30;;;2.20;99.90;;;;;;5031881;28;20256;-58
2023/12/08 08:56:57;;;;;;;34.07;22.47;;;2.30;99.90;;;;;;5032945;28;20207;-62
2023/12/08 08:59:22;;;;;;;31.10;20.87;;;2.30;99.90;;;;;;5030019;28;20258;-54
2023/12/08 09:01:48;;;;;;;34.87;21.70;;;2.30;99.90;;;;;;5031439;28;20256;-56
2023/12/08 09:04:13;;;;;;;30.97;21.23;;;2.30;99.90;;;;;;5032882;28;20225;-63
2023/12/08 09:06:39;;;;;;;33.00;19.10;;;2.40;99.90;;;;;;5031873;28;20533;-64
2023/12/08 09:09:05;;;;;;;30.33;19.67;;;2.40;99.90;;;;;;5029650;28;20673;-56
2023/12/08 09:11:31;;;;;;;32.60;18.93;;;2.30;99.90;;;;;;5029229;28;20202;-55
2023/12/08 09:13:56;;;;;;;30.63;21.27;;;2.40;99.90;;;;;;5029467;28;21735;-55
2023/12/08 09:16:22;;;;;;;28.43;18.97;;;2.40;99.90;;;;;;5029437;28;20298;-55
2023/12/08 09:18:47;;;;;;;35.00;22.60;;;2.40;99.90;;;;;;5033611;28;20210;-63
2023/12/08 09:21:13;;;;;;;26.90;17.47;;;2.50;99.90;;;;;;5012764;28;20219;-54
2023/12/08 09:23:38;;;;;;;29.87;20.63;;;2.60;99.90;;;;;;5032690;28;20204;-56
2023/12/08 09:26:04;;;;;;;29.30;18.20;;;2.40;99.90;;;;;;5029344;28;20237;-55
2023/12/08 09:28:29;;;;;;;18.90;13.43;;;2.50;99.90;;;;;;5025941;28;20340;-65
2023/12/08 09:30:55;;;;;;;31.90;18.43;;;2.30;99.90;;;;;;5031688;28;20281;-54
2023/12/08 09:33:21;;;;;;;30.67;20.17;;;2.30;99.90;;;;;;5022202;28;20652;-64
2023/12/08 09:35:46;;;;;;;29.10;19.80;;;2.40;99.90;;;;;;5014125;28;20228;-64
2023/12/08 09:38:12;;;;;;;28.43;19.17;;;2.40;99.90;;;;;;5030751;28;20205;-56
2023/12/08 09:40:41;;;;;;;28.10;19.83;;;2.40;99.90;;;;;;5031090;28;20199;-54
2023/12/08 09:43:18;;;;;;;30.23;19.57;;;2.50;99.90;;;;;;5031728;28;20212;-55
2023/12/08 09:45:46;;;;;;;26.10;18.20;;;2.60;99.90;;;;;;5012493;28;20324;-55
2023/12/08 09:48:12;;;;;;;30.10;18.53;;;2.50;99.90;;;;;;5025632;28;20209;-55
2023/12/08 09:50:39;;;;;;;27.10;17.70;;;2.50;99.90;;;;;;5025278;28;20218;-55
2023/12/08 09:53:05;;;;;;;28.67;17.77;;;2.50;99.90;;;;;;5025586;28;20223;-55
2023/12/08 09:55:33;;;;;;;34.30;18.93;;;2.70;99.90;;;;;;5030038;28;20434;-54
2023/12/08 09:58:00;;;;;;;30.03;19.37;;;2.70;99.90;;;;;;5032309;28;20204;-54
2023/12/08 10:00:30;;;;;;;27.67;19.13;;;2.60;99.90;;;;;;5031042;28;20598;-55
2023/12/08 10:02:55;;;;;;;28.67;19.50;;;2.70;99.90;;;;;;5032220;28;20207;-55
2023/12/08 10:05:21;;;;;;;27.93;18.83;;;2.70;99.90;;;;;;5030105;28;20805;-56
2023/12/08 10:07:50;;;;;;;23.67;16.87;;;2.60;99.90;;;;;;5011342;28;20614;-54
2023/12/08 10:10:16;;;;;;;27.43;17.90;;;2.70;99.90;;;;;;5030825;28;20483;-54
2023/12/08 10:12:41;;;;;;;27.90;18.90;;;2.60;99.90;;;;;;5028079;28;20574;-57
2023/12/08 10:15:11;;;;;;;20.37;15.70;;;2.70;99.90;;;;;;5027421;28;20237;-55
2023/12/08 10:17:49;;;;;;;20.57;15.83;;;2.50;99.90;;;;;;5028947;28;20667;-55
2023/12/08 10:20:15;;;;;;;25.83;17.03;;;2.40;99.90;;;;;;5029856;28;20911;-56
2023/12/08 10:22:49;;;;;;;26.37;17.97;;;2.30;99.90;;;;;;5028798;28;20199;-56
2023/12/08 10:25:16;;;;;;;29.77;19.10;;;2.40;99.90;;;;;;5031638;28;20257;-55
2023/12/08 10:27:47;;;;;;;28.07;17.03;;;2.40;99.90;;;;;;5031183;28;20205;-54
2023/12/08 10:30:14;;;;;;;27.93;16.83;;;2.40;99.90;;;;;;5011955;28;20204;-55
2023/12/08 10:32:40;;;;;;;26.47;17.63;;;2.40;99.90;;;;;;5027532;28;20274;-56
2023/12/08 10:35:06;;;;;;;27.47;17.57;;;2.40;99.90;;;;;;5004897;28;20309;-64
2023/12/08 10:37:31;;;;;;;25.97;18.13;;;2.40;99.90;;;;;;5027730;28;20218;-56
2023/12/08 10:39:58;;;;;;;24.73;17.67;;;2.30;99.90;;;;;;5031015;28;20205;-56
2023/12/08 10:42:24;;;;;;;25.53;17.33;;;2.50;99.90;;;;;;5024729;28;20197;-56
2023/12/08 10:44:49;;;;;;;29.90;18.37;;;2.30;99.90;;;;;;5025302;28;21050;-56
2023/12/08 10:47:17;;;;;;;26.33;18.43;;;2.20;99.90;;;;;;5032663;28;20197;-60
2023/12/08 10:49:43;;;;;;;20.90;15.23;;;2.30;99.90;;;;;;5030780;28;20192;-59
2023/12/08 10:52:09;;;;;;;28.20;18.57;;;2.30;99.90;;;;;;5011904;28;20202;-58
2023/12/08 10:54:35;;;;;;;24.40;16.73;;;2.20;99.90;;;;;;5030460;28;20708;-56
2023/12/08 10:57:01;;;;;;;24.00;16.53;;;2.30;99.90;;;;;;5024892;28;20617;-55
2023/12/08 10:59:29;;;;;;;24.77;15.60;;;2.30;99.90;;;;;;5030702;28;20242;-56
2023/12/08 11:02:00;;;;;;;25.20;17.23;;;2.20;99.90;;;;;;5026781;28;20195;-54
2023/12/08 11:04:28;;;;;;;27.63;16.57;;;2.30;99.90;;;;;;5011988;28;20640;-55
2023/12/08 11:07:04;;;;;;;22.37;14.40;;;2.10;99.90;;;;;;5027383;28;20262;-54
2023/12/08 11:09:34;;;;;;;25.53;16.33;;;2.20;99.90;;;;;;5029531;28;20194;-56
2023/12/08 11:12:03;;;;;;;24.37;16.23;;;2.30;99.90;;;;;;5031239;28;20198;-63
2023/12/08 11:14:54;;;;;;;26.43;17.87;;;2.30;99.90;;;;;;5010270;28;20197;-57
2023/12/08 11:17:26;;;;;;;25.93;16.67;;;2.40;99.90;;;;;;5025937;28;20603;-64
2023/12/08 11:19:53;;;;;;;26.10;17.63;;;2.40;99.90;;;;;;5029187;28;20404;-63
2023/12/08 11:22:19;;;;;;;26.23;17.77;;;2.30;99.90;;;;;;5029888;28;20211;-63
2023/12/08 11:24:46;;;;;;;27.80;17.90;;;2.20;99.90;;;;;;5027433;28;20229;-55
2023/12/08 11:27:36;;;;;;;27.60;17.93;;;2.30;99.90;;;;;;5022899;28;20293;-54
2023/12/08 11:30:16;;;;;;;28.03;16.67;;;2.20;99.90;;;;;;5028314;28;20212;-55
2023/12/08 11:32:49;;;;;;;27.83;17.50;;;2.40;99.90;;;;;;5010578;28;20266;-59
2023/12/08 11:35:17;;;;;;;28.63;18.37;;;2.40;99.90;;;;;;5030711;28;20192;-63
2023/12/08 11:37:45;;;;;;;24.67;17.43;;;2.50;99.90;;;;;;5029696;28;21208;-60
2023/12/08 11:40:11;;;;;;;23.57;16.53;;;2.40;99.90;;;;;;5027631;28;20540;-57
2023/12/08 11:42:42;;;;;;;25.17;16.77;;;2.30;99.90;;;;;;5012319;28;20292;-54
2023/12/08 11:45:08;;;;;;;30.17;18.70;;;2.40;99.90;;;;;;5023365;28;20232;-55
2023/12/08 11:47:35;;;;;;;26.80;17.50;;;2.50;99.90;;;;;;5028517;28;20195;-54
2023/12/08 11:50:03;;;;;;;25.77;17.20;;;2.60;99.90;;;;;;5028716;28;20203;-54
2023/12/08 11:52:31;;;;;;;23.97;17.77;;;2.50;99.90;;;;;;5026874;28;20284;-56
2023/12/08 11:54:58;;;;;;;26.77;17.20;;;2.50;99.90;;;;;;5027427;28;20718;-54
2023/12/08 11:57:24;;;;;;;24.33;16.03;;;2.40;99.90;;;;;;5029528;28;20206;-56
2023/12/08 11:59:50;;;;;;;22.70;15.70;;;2.40;99.90;;;;;;5011457;28;21023;-63
2023/12/08 12:02:16;;;;;;;22.00;15.90;;;2.30;99.90;;;;;;5031548;28;20217;-55
2023/12/08 12:04:42;;;;;;;25.23;17.37;;;2.40;99.90;;;;;;5030823;28;20764;-55
2023/12/08 12:07:08;;;;;;;20.17;13.67;;;2.50;99.90;;;;;;5031654;28;20217;-55
2023/12/08 12:09:35;;;;;;;20.87;15.20;;;2.50;99.90;;;;;;5015293;28;20245;-54
2023/12/08 12:12:18;;;;;;;24.77;15.27;;;2.50;99.90;;;;;;5013541;28;20199;-55
2023/12/08 12:14:46;;;;;;;23.23;15.90;;;2.50;99.90;;;;;;5029836;28;20602;-61
2023/12/08 12:17:13;;;;;;;23.23;15.50;;;2.50;99.90;;;;;;5031055;28;20234;-55
2023/12/08 12:19:39;;;;;;;21.33;14.83;;;2.60;99.90;;;;;;5025477;28;20993;-54
2023/12/08 12:22:05;;;;;;;22.33;15.53;;;2.60;99.90;;;;;;5032967;28;20313;-54
2023/12/08 12:24:31;;;;;;;24.93;16.23;;;2.60;99.90;;;;;;5033935;28;20220;-54
2023/12/08 12:26:57;;;;;;;23.63;15.03;;;2.40;99.90;;;;;;5025489;28;20222;-55
2023/12/08 12:29:23;;;;;;;23.20;15.33;;;2.40;99.90;;;;;;5031564;28;20734;-54
2023/12/08 12:31:49;;;;;;;19.13;14.93;;;2.60;99.90;;;;;;5031629;28;20197;-65